Time;durP1;ratioP1;P1;durP2;ratioP2;P2;SDS_P1;SDS_P2;PMS_P1;PMS_P2;Temp;Humidity;BMP_temperature;BMP_pressure;BME280_temperature;BME280_humidity;BME280_pressure;Samples;Min_cycle;Max_cycle;Signal;HPM_P1;HPM_P2
2023/01/24 00:01:04;;;;;;;5.57;4.73;;;5.60;99.90;;;;;;5014931;28;20207;-68
2023/01/24 00:03:32;;;;;;;6.33;5.47;;;5.60;99.90;;;;;;5029717;28;20202;-63
2023/01/24 00:05:57;;;;;;;5.87;4.90;;;5.60;99.90;;;;;;5034825;28;20174;-67
2023/01/24 00:08:25;;;;;;;6.60;5.17;;;5.60;99.90;;;;;;5032984;28;20174;-67
2023/01/24 00:10:59;;;;;;;5.67;4.73;;;5.60;99.90;;;;;;5014805;28;20240;-65
2023/01/24 00:13:25;;;;;;;5.57;4.90;;;5.70;99.90;;;;;;4996477;28;20274;-65
2023/01/24 00:15:50;;;;;;;6.00;5.20;;;5.60;99.90;;;;;;5006884;28;20292;-67
2023/01/24 00:18:18;;;;;;;5.80;4.90;;;5.60;99.90;;;;;;5015133;28;20198;-67
2023/01/24 00:20:48;;;;;;;5.97;5.07;;;5.60;99.90;;;;;;5014790;28;20297;-67
2023/01/24 00:23:17;;;;;;;6.50;5.43;;;5.70;99.90;;;;;;5013975;28;20171;-66
2023/01/24 00:25:45;;;;;;;5.13;4.60;;;5.60;99.90;;;;;;4996093;28;20171;-67
2023/01/24 00:28:12;;;;;;;5.37;4.73;;;5.70;99.90;;;;;;5014681;28;20198;-67
2023/01/24 00:30:38;;;;;;;5.97;5.10;;;5.70;99.90;;;;;;5014520;28;20174;-67
2023/01/24 00:33:06;;;;;;;6.07;5.13;;;5.70;99.90;;;;;;5008929;28;20213;-68
2023/01/24 00:35:31;;;;;;;6.63;5.30;;;5.60;99.90;;;;;;5014298;28;20179;-67
2023/01/24 00:37:57;;;;;;;5.90;5.30;;;5.70;99.90;;;;;;5001184;28;20175;-67
2023/01/24 00:40:22;;;;;;;6.90;5.43;;;5.60;99.90;;;;;;5007148;28;20202;-67
2023/01/24 00:42:48;;;;;;;6.30;5.47;;;5.70;99.90;;;;;;5006403;28;20262;-67
2023/01/24 00:45:14;;;;;;;7.53;5.57;;;5.60;99.90;;;;;;5014418;28;20232;-67
2023/01/24 00:47:41;;;;;;;6.10;5.50;;;5.70;99.90;;;;;;5020104;28;20209;-65
2023/01/24 00:50:10;;;;;;;6.47;5.37;;;5.70;99.90;;;;;;5020953;28;20217;-69
2023/01/24 00:52:35;;;;;;;6.23;5.17;;;5.70;99.90;;;;;;5035807;28;20313;-67
2023/01/24 00:55:06;;;;;;;5.63;4.80;;;5.60;99.90;;;;;;5024316;28;20217;-68
2023/01/24 00:57:34;;;;;;;5.43;4.70;;;5.70;99.90;;;;;;5023201;28;20268;-68
2023/01/24 00:59:59;;;;;;;5.53;4.73;;;5.70;99.90;;;;;;5018969;28;20187;-67
2023/01/24 01:02:27;;;;;;;5.13;4.40;;;5.70;99.90;;;;;;5018747;28;20205;-63
2023/01/24 01:04:53;;;;;;;4.50;4.10;;;5.70;99.90;;;;;;5011901;28;20209;-69
2023/01/24 01:07:20;;;;;;;5.63;4.30;;;5.70;99.90;;;;;;5020716;28;20245;-68
2023/01/24 01:09:46;;;;;;;4.87;4.37;;;5.70;99.90;;;;;;5004893;28;20190;-67
2023/01/24 01:12:14;;;;;;;5.30;4.33;;;5.60;99.90;;;;;;5003264;28;20263;-67
2023/01/24 01:14:39;;;;;;;4.73;4.20;;;5.60;99.90;;;;;;5020979;28;20178;-65
2023/01/24 01:17:07;;;;;;;4.93;4.43;;;5.60;99.90;;;;;;5016603;28;20365;-68
2023/01/24 01:19:35;;;;;;;5.17;4.43;;;5.60;99.90;;;;;;5001175;28;20229;-62
2023/01/24 01:22:05;;;;;;;5.43;4.43;;;5.60;99.90;;;;;;5009063;28;20195;-67
2023/01/24 01:24:33;;;;;;;4.60;4.07;;;5.60;99.90;;;;;;5017395;28;20167;-67
2023/01/24 01:26:59;;;;;;;4.50;3.90;;;5.60;99.90;;;;;;5001323;28;20182;-67
2023/01/24 01:29:27;;;;;;;4.47;4.07;;;5.60;99.90;;;;;;5000892;28;20195;-66
2023/01/24 01:31:52;;;;;;;4.50;4.10;;;5.60;99.90;;;;;;5000946;28;20183;-66
2023/01/24 01:34:22;;;;;;;4.33;3.93;;;5.60;99.90;;;;;;5007733;28;20302;-67
2023/01/24 01:36:48;;;;;;;4.20;3.77;;;5.60;99.90;;;;;;5020182;28;20213;-65
2023/01/24 01:39:16;;;;;;;4.70;3.70;;;5.60;99.90;;;;;;5014480;28;20183;-64
2023/01/24 01:41:44;;;;;;;4.80;4.30;;;5.60;99.90;;;;;;5000884;28;20207;-68
2023/01/24 01:47:02;;;;;;;4.87;4.20;;;5.60;99.90;;;;;;5020828;28;20214;-65
2023/01/24 01:49:31;;;;;;;4.50;4.00;;;5.60;99.90;;;;;;5020527;28;20209;-67
2023/01/24 01:52:03;;;;;;;3.77;3.47;;;5.60;99.90;;;;;;5016669;28;20201;-67
2023/01/24 01:54:38;;;;;;;4.33;3.93;;;5.60;99.90;;;;;;5012666;28;20175;-66
2023/01/24 01:57:09;;;;;;;4.57;4.07;;;5.60;99.90;;;;;;5017292;28;20173;-68
2023/01/24 01:59:43;;;;;;;4.67;3.90;;;5.60;99.90;;;;;;5017522;28;20202;-68
2023/01/24 02:02:10;;;;;;;3.97;3.53;;;5.60;99.90;;;;;;5024997;28;20207;-68
2023/01/24 02:04:39;;;;;;;3.73;3.37;;;5.50;99.90;;;;;;5016556;28;20171;-65
2023/01/24 02:07:21;;;;;;;4.07;3.67;;;5.60;99.90;;;;;;5017318;28;20191;-67
2023/01/24 02:09:52;;;;;;;4.10;3.70;;;5.50;99.90;;;;;;5012988;28;20236;-66
2023/01/24 02:12:25;;;;;;;4.17;3.77;;;5.50;99.90;;;;;;5015298;28;20202;-67
2023/01/24 02:17:50;;;;;;;3.67;3.17;;;5.50;99.90;;;;;;5003308;28;20350;-67
2023/01/24 02:20:28;;;;;;;4.17;3.70;;;5.50;99.90;;;;;;5016441;28;20190;-65
2023/01/24 02:23:08;;;;;;;3.50;3.20;;;5.50;99.90;;;;;;5013118;28;20171;-65
2023/01/24 02:25:43;;;;;;;4.17;3.33;;;5.50;99.90;;;;;;5023666;28;20261;-68
2023/01/24 02:28:12;;;;;;;3.77;3.13;;;5.40;99.90;;;;;;5012872;28;20198;-67
2023/01/24 02:30:38;;;;;;;4.07;3.53;;;5.40;99.90;;;;;;5001393;28;20254;-66
2023/01/24 02:33:19;;;;;;;4.07;3.37;;;5.40;99.90;;;;;;5006144;28;20202;-67
2023/01/24 02:35:47;;;;;;;3.73;3.33;;;5.40;99.90;;;;;;5006728;28;20221;-67
2023/01/24 02:38:20;;;;;;;4.13;3.57;;;5.40;99.90;;;;;;5012053;28;20434;-66
2023/01/24 02:40:52;;;;;;;3.80;3.40;;;5.40;99.90;;;;;;5016088;28;20240;-67
2023/01/24 02:43:20;;;;;;;4.27;3.47;;;5.40;99.90;;;;;;5016487;28;20208;-67
2023/01/24 02:45:46;;;;;;;3.83;3.43;;;5.40;99.90;;;;;;5017657;28;20190;-67
2023/01/24 02:48:14;;;;;;;4.77;4.17;;;5.50;99.90;;;;;;5001785;28;20184;-67
2023/01/24 02:53:29;;;;;;;4.30;3.80;;;5.40;99.90;;;;;;5003247;28;20189;-66
2023/01/24 02:58:48;;;;;;;4.50;3.90;;;5.40;99.90;;;;;;5006557;28;20189;-68
2023/01/24 03:01:16;;;;;;;5.17;4.23;;;5.40;99.90;;;;;;5013236;28;20329;-66
2023/01/24 03:03:46;;;;;;;4.57;3.67;;;5.40;99.90;;;;;;5008361;28;20198;-67
2023/01/24 03:06:13;;;;;;;4.23;3.80;;;5.40;99.90;;;;;;5009321;28;20182;-68
2023/01/24 03:08:41;;;;;;;4.13;3.67;;;5.40;99.90;;;;;;5013673;28;20208;-67
2023/01/24 03:11:08;;;;;;;4.80;3.77;;;5.40;99.90;;;;;;4996139;28;20179;-68
2023/01/24 03:35:53;;;;;;;4.40;3.47;;;5.40;99.90;;;;;;5011377;28;20205;-64
2023/01/24 03:41:07;;;;;;;4.00;3.57;;;5.30;99.90;;;;;;5013772;28;20264;-68
2023/01/24 03:43:32;;;;;;;3.97;3.37;;;5.40;99.90;;;;;;5014660;28;20174;-67
2023/01/24 03:45:58;;;;;;;3.77;3.33;;;5.30;99.90;;;;;;5014964;28;20171;-67
2023/01/24 03:48:26;;;;;;;3.77;3.37;;;5.30;99.90;;;;;;5016267;28;20183;-65
2023/01/24 03:53:36;;;;;;;4.00;3.20;;;5.20;99.90;;;;;;5024636;28;20213;-69
2023/01/24 03:56:02;;;;;;;3.80;3.40;;;5.20;99.90;;;;;;5007710;28;20175;-67
2023/01/24 03:58:30;;;;;;;3.77;3.30;;;5.20;99.90;;;;;;5011188;28;20189;-66
2023/01/24 04:00:58;;;;;;;4.00;3.60;;;5.20;99.90;;;;;;5007997;28;20195;-65
2023/01/24 04:03:24;;;;;;;4.70;3.33;;;5.20;99.90;;;;;;5015273;28;20171;-68
2023/01/24 04:05:50;;;;;;;4.07;3.53;;;5.20;99.90;;;;;;5027117;28;20190;-68
2023/01/24 04:08:17;;;;;;;4.23;3.37;;;5.20;99.90;;;;;;5033340;28;20182;-68
2023/01/24 04:10:48;;;;;;;4.10;3.47;;;5.20;99.90;;;;;;4995205;28;20176;-69
2023/01/24 04:13:13;;;;;;;4.70;3.87;;;5.20;99.90;;;;;;4997424;28;20585;-66
2023/01/24 04:15:39;;;;;;;4.40;3.90;;;5.20;99.90;;;;;;5006809;28;20303;-67
2023/01/24 04:18:05;;;;;;;3.97;3.57;;;5.20;99.90;;;;;;5011023;28;20245;-66
2023/01/24 04:20:38;;;;;;;5.53;3.60;;;5.20;99.90;;;;;;5011668;28;20177;-68
2023/01/24 04:23:08;;;;;;;3.73;3.30;;;5.10;99.90;;;;;;5013858;28;20172;-69
2023/01/24 04:25:34;;;;;;;4.23;3.57;;;5.20;99.90;;;;;;5013150;28;20181;-66
2023/01/24 04:28:04;;;;;;;3.73;3.10;;;5.10;99.90;;;;;;5013821;28;20171;-68
2023/01/24 04:30:29;;;;;;;4.47;3.90;;;5.10;99.90;;;;;;5010526;28;20191;-67
2023/01/24 04:32:58;;;;;;;4.10;3.60;;;5.10;99.90;;;;;;4998267;28;20180;-67
2023/01/24 04:35:27;;;;;;;4.27;3.50;;;5.10;99.90;;;;;;4998822;28;20179;-67
2023/01/24 04:37:52;;;;;;;3.80;3.40;;;5.10;99.90;;;;;;5014024;28;20214;-68
2023/01/24 04:40:18;;;;;;;4.20;3.67;;;5.10;99.90;;;;;;5002652;28;20179;-67
2023/01/24 04:42:46;;;;;;;4.10;3.40;;;5.10;99.90;;;;;;5004136;28;20203;-65
2023/01/24 04:45:14;;;;;;;3.93;3.53;;;5.10;99.90;;;;;;5007020;28;20248;-65
2023/01/24 04:47:39;;;;;;;3.60;3.30;;;5.10;99.90;;;;;;4997610;28;20205;-68
2023/01/24 04:50:08;;;;;;;4.33;3.67;;;5.10;99.90;;;;;;4999389;28;20203;-66
2023/01/24 04:52:34;;;;;;;4.80;3.70;;;5.10;99.90;;;;;;5013127;28;20198;-67
2023/01/24 04:55:02;;;;;;;3.97;3.57;;;5.00;99.90;;;;;;5013927;28;20256;-63
2023/01/24 04:57:28;;;;;;;5.17;4.17;;;5.00;99.90;;;;;;5014380;28;20182;-66
2023/01/24 04:59:53;;;;;;;7.07;5.10;;;5.00;99.90;;;;;;5014325;28;20183;-67
2023/01/24 05:02:19;;;;;;;7.60;5.10;;;4.90;99.90;;;;;;5024112;28;20219;-66
2023/01/24 05:04:45;;;;;;;11.07;6.73;;;4.90;99.90;;;;;;5027478;28;20175;-66
2023/01/24 05:07:10;;;;;;;7.33;5.47;;;4.90;99.90;;;;;;5006587;28;20214;-67
2023/01/24 05:09:39;;;;;;;6.77;5.23;;;4.90;99.90;;;;;;5008575;28;20205;-61
2023/01/24 05:12:05;;;;;;;5.03;4.23;;;4.90;99.90;;;;;;5003616;28;20321;-68
2023/01/24 05:14:30;;;;;;;4.93;4.43;;;5.00;99.90;;;;;;5013689;28;20171;-63
2023/01/24 05:16:56;;;;;;;4.93;4.10;;;5.00;99.90;;;;;;5015511;28;20214;-67
2023/01/24 05:19:24;;;;;;;5.23;4.10;;;5.00;99.90;;;;;;5013779;28;20175;-65
2023/01/24 05:21:49;;;;;;;13.30;10.93;;;5.00;99.90;;;;;;5009756;28;20265;-67
2023/01/24 05:24:15;;;;;;;7.47;6.33;;;5.10;99.90;;;;;;4997224;28;20294;-67
2023/01/24 05:26:40;;;;;;;5.17;4.40;;;5.10;99.90;;;;;;4996013;28;20266;-69
2023/01/24 05:29:06;;;;;;;5.07;3.90;;;5.10;99.90;;;;;;5011505;28;20203;-67
2023/01/24 05:31:32;;;;;;;4.33;3.90;;;5.10;99.90;;;;;;5016553;28;20233;-66
2023/01/24 05:33:57;;;;;;;4.50;4.00;;;5.10;99.90;;;;;;5014584;28;20252;-66
2023/01/24 05:36:23;;;;;;;4.30;3.73;;;5.10;99.90;;;;;;5007247;28;20175;-67
2023/01/24 05:38:52;;;;;;;4.10;3.70;;;5.10;99.90;;;;;;5013686;28;20189;-67
2023/01/24 05:41:20;;;;;;;4.60;4.00;;;5.10;99.90;;;;;;5017664;28;20207;-66
2023/01/24 05:43:47;;;;;;;5.23;4.23;;;5.10;99.90;;;;;;5014664;28;20172;-66
2023/01/24 05:46:20;;;;;;;4.23;3.67;;;5.10;99.90;;;;;;5015282;28;20198;-67
2023/01/24 05:48:49;;;;;;;4.27;3.70;;;5.10;99.90;;;;;;5010549;28;20262;-66
2023/01/24 05:51:17;;;;;;;4.00;3.60;;;5.10;99.90;;;;;;5017463;28;20218;-67
2023/01/24 05:53:45;;;;;;;4.10;3.70;;;5.00;99.90;;;;;;5016033;28;20237;-68
2023/01/24 05:56:19;;;;;;;3.90;3.57;;;5.00;99.90;;;;;;5001838;28;20179;-66
2023/01/24 05:58:46;;;;;;;4.67;3.93;;;5.10;99.90;;;;;;5026682;28;20208;-68
2023/01/24 06:01:18;;;;;;;4.10;3.33;;;5.10;99.90;;;;;;5032613;28;20191;-67
2023/01/24 06:03:47;;;;;;;3.60;3.30;;;5.10;99.90;;;;;;5027198;28;20194;-69
2023/01/24 06:06:15;;;;;;;4.10;3.70;;;5.10;99.90;;;;;;5014800;28;20325;-70
2023/01/24 06:08:44;;;;;;;4.33;3.93;;;5.00;99.90;;;;;;4997527;28;20218;-68
2023/01/24 06:11:12;;;;;;;4.50;3.80;;;5.00;99.90;;;;;;5016846;28;20182;-66
2023/01/24 06:13:38;;;;;;;4.03;3.63;;;5.00;99.90;;;;;;5014816;28;20189;-67
2023/01/24 06:16:06;;;;;;;4.90;3.50;;;5.00;99.90;;;;;;5003298;28;20258;-67
2023/01/24 06:18:32;;;;;;;4.20;3.67;;;5.00;99.90;;;;;;5011532;28;20171;-66
2023/01/24 06:21:03;;;;;;;4.83;4.27;;;5.00;99.90;;;;;;5000189;28;20217;-67
2023/01/24 06:23:31;;;;;;;4.23;3.73;;;4.90;99.90;;;;;;5015877;28;20182;-66
2023/01/24 06:25:57;;;;;;;4.17;3.77;;;4.90;99.90;;;;;;5036580;28;20181;-67
2023/01/24 06:28:24;;;;;;;4.53;3.83;;;4.90;99.90;;;;;;5025218;28;20201;-67
2023/01/24 06:31:24;;;;;;;5.17;3.70;;;4.90;99.90;;;;;;5007785;28;20198;-66
2023/01/24 06:34:09;;;;;;;4.03;3.60;;;4.90;99.90;;;;;;4998769;28;20277;-66
2023/01/24 06:36:47;;;;;;;4.23;3.80;;;4.90;99.90;;;;;;5016804;28;20173;-67
2023/01/24 06:39:15;;;;;;;4.33;3.67;;;4.90;99.90;;;;;;4996779;28;20207;-60
2023/01/24 06:41:41;;;;;;;3.87;3.27;;;4.80;99.90;;;;;;5014036;28;20203;-67
2023/01/24 06:44:10;;;;;;;4.73;3.93;;;4.90;99.90;;;;;;5016226;28;20202;-66
2023/01/24 06:46:35;;;;;;;4.17;3.77;;;4.90;99.90;;;;;;5016034;28;20205;-67
2023/01/24 06:49:01;;;;;;;4.00;3.60;;;4.80;99.90;;;;;;5016257;28;20205;-67
2023/01/24 06:51:26;;;;;;;4.73;3.83;;;4.80;99.90;;;;;;5015767;28;20305;-66
2023/01/24 06:53:52;;;;;;;3.33;3.03;;;4.80;99.90;;;;;;5016166;28;20183;-65
2023/01/24 06:56:18;;;;;;;3.90;3.50;;;4.80;99.90;;;;;;5015837;28;20457;-65
2023/01/24 06:58:43;;;;;;;3.73;3.27;;;4.80;99.90;;;;;;5000986;28;20239;-66
2023/01/24 07:01:09;;;;;;;4.53;3.50;;;4.90;99.90;;;;;;4995998;28;20207;-66
2023/01/24 07:03:37;;;;;;;3.97;3.60;;;4.80;99.90;;;;;;5001368;28;20183;-63
2023/01/24 07:06:03;;;;;;;4.60;3.70;;;4.80;99.90;;;;;;4998837;28;20168;-66
2023/01/24 07:08:30;;;;;;;3.83;3.43;;;4.80;99.90;;;;;;5015867;28;20171;-66
2023/01/24 07:10:59;;;;;;;3.77;3.37;;;4.80;99.90;;;;;;5012649;28;20214;-66
2023/01/24 07:13:27;;;;;;;4.03;3.63;;;4.80;99.90;;;;;;5006015;28;20274;-66
2023/01/24 07:15:53;;;;;;;4.00;3.60;;;4.90;99.90;;;;;;5012127;28;20269;-66
2023/01/24 07:18:21;;;;;;;4.00;3.60;;;4.90;99.90;;;;;;5012155;28;20246;-62
2023/01/24 07:20:49;;;;;;;3.70;3.30;;;4.90;99.90;;;;;;5015057;28;20269;-67
2023/01/24 07:23:31;;;;;;;4.30;3.40;;;4.90;99.90;;;;;;5015511;28;20198;-67
2023/01/24 07:25:59;;;;;;;4.40;3.67;;;4.90;99.90;;;;;;5015390;28;20173;-67
2023/01/24 07:28:25;;;;;;;3.97;3.57;;;4.90;99.90;;;;;;5015270;28;20174;-64
2023/01/24 07:30:55;;;;;;;3.90;3.50;;;4.90;99.90;;;;;;5015423;28;20175;-66
2023/01/24 07:33:23;;;;;;;3.73;3.33;;;4.90;99.90;;;;;;5015560;28;20301;-67
2023/01/24 07:35:51;;;;;;;4.47;4.07;;;4.90;99.90;;;;;;5015220;28;20278;-66
2023/01/24 07:38:19;;;;;;;4.40;3.97;;;4.90;99.90;;;;;;5015116;28;20193;-66
2023/01/24 07:40:47;;;;;;;4.40;3.60;;;4.90;99.90;;;;;;5015266;28;20233;-66
2023/01/24 07:43:12;;;;;;;4.40;3.67;;;4.90;99.90;;;;;;5013741;28;20174;-63
2023/01/24 07:45:40;;;;;;;4.33;3.93;;;4.90;99.90;;;;;;5003623;28;20189;-67
2023/01/24 07:48:07;;;;;;;4.37;3.80;;;4.90;99.90;;;;;;5014994;28;20229;-67
2023/01/24 07:50:33;;;;;;;3.80;3.40;;;4.90;99.90;;;;;;5006526;28;20183;-66
2023/01/24 07:52:59;;;;;;;4.77;3.83;;;4.90;99.90;;;;;;4994750;28;20289;-65
2023/01/24 07:55:25;;;;;;;4.47;4.07;;;4.90;99.90;;;;;;5013391;28;20242;-65
2023/01/24 07:57:59;;;;;;;4.33;3.93;;;4.90;99.90;;;;;;5015079;28;20179;-66
2023/01/24 08:00:25;;;;;;;3.93;3.53;;;4.90;99.90;;;;;;5014886;28;20195;-66
2023/01/24 08:02:50;;;;;;;4.63;3.57;;;4.90;99.90;;;;;;5027650;28;20198;-63
2023/01/24 08:05:18;;;;;;;4.43;3.73;;;5.00;99.90;;;;;;5024404;28;20175;-65
2023/01/24 08:07:44;;;;;;;4.37;3.37;;;5.00;99.90;;;;;;5015035;28;20199;-66
2023/01/24 08:10:12;;;;;;;4.47;3.70;;;5.00;99.90;;;;;;5004613;28;20190;-66
2023/01/24 08:12:43;;;;;;;3.90;3.50;;;5.00;99.90;;;;;;4995046;28;20184;-65
2023/01/24 08:15:11;;;;;;;5.77;3.57;;;5.00;99.90;;;;;;5006906;28;20221;-66
2023/01/24 08:17:39;;;;;;;3.83;3.50;;;5.00;99.90;;;;;;5014761;28;20209;-67
2023/01/24 08:20:08;;;;;;;4.37;3.73;;;5.00;99.90;;;;;;5014701;28;20202;-66
2023/01/24 08:22:34;;;;;;;3.67;3.27;;;5.10;99.90;;;;;;5013223;28;20202;-67
2023/01/24 08:25:02;;;;;;;4.37;3.60;;;5.10;99.90;;;;;;4999100;28;20326;-66
2023/01/24 08:27:27;;;;;;;3.80;3.40;;;5.10;99.90;;;;;;5014706;28;20273;-65
2023/01/24 08:29:55;;;;;;;4.10;3.50;;;5.10;99.90;;;;;;5014701;28;20228;-66
2023/01/24 08:32:21;;;;;;;3.70;3.17;;;5.20;99.90;;;;;;5010522;28;20198;-67
2023/01/24 08:34:46;;;;;;;3.90;3.50;;;5.20;99.90;;;;;;5007163;28;20241;-66
2023/01/24 08:37:14;;;;;;;4.13;3.47;;;5.20;99.90;;;;;;5014393;28;20217;-65
2023/01/24 08:39:42;;;;;;;3.80;3.40;;;5.20;99.90;;;;;;5024042;28;20182;-66
2023/01/24 08:42:09;;;;;;;3.90;3.50;;;5.20;99.90;;;;;;5034080;28;20233;-66
2023/01/24 08:44:34;;;;;;;3.67;3.27;;;5.20;99.90;;;;;;5033858;28;20194;-65
2023/01/24 08:47:02;;;;;;;4.70;3.83;;;5.20;99.90;;;;;;5028688;28;20170;-66
2023/01/24 08:49:28;;;;;;;4.03;3.63;;;5.20;99.90;;;;;;5014427;28;20213;-66
2023/01/24 08:51:58;;;;;;;4.90;4.00;;;5.20;99.90;;;;;;4995147;28;20254;-66
2023/01/24 08:54:32;;;;;;;4.63;3.83;;;5.20;99.90;;;;;;4994745;28;20269;-66
2023/01/24 08:56:58;;;;;;;4.00;3.60;;;5.30;99.90;;;;;;4994832;28;20209;-64
2023/01/24 08:59:26;;;;;;;4.57;3.50;;;5.20;99.90;;;;;;5004134;28;20178;-66
2023/01/24 09:01:51;;;;;;;3.53;3.07;;;5.20;99.90;;;;;;5014265;28;20198;-68
2023/01/24 09:04:19;;;;;;;3.83;3.43;;;5.20;99.90;;;;;;5015517;28;20205;-66
2023/01/24 09:06:45;;;;;;;4.07;3.67;;;5.20;99.90;;;;;;5017956;28;20329;-66
2023/01/24 09:09:11;;;;;;;3.67;3.37;;;5.20;99.90;;;;;;5018152;28;20266;-65
2023/01/24 09:11:38;;;;;;;4.60;3.70;;;5.30;99.90;;;;;;5017938;28;20174;-66
2023/01/24 09:14:04;;;;;;;4.60;3.90;;;5.20;99.90;;;;;;5030982;28;20192;-66
2023/01/24 09:16:30;;;;;;;4.33;3.80;;;5.20;99.90;;;;;;5037740;28;20215;-66
2023/01/24 09:18:56;;;;;;;4.20;3.80;;;5.30;99.90;;;;;;5027959;28;20240;-64
2023/01/24 09:21:22;;;;;;;3.90;3.40;;;5.30;99.90;;;;;;5001428;28;20298;-67
2023/01/24 09:23:49;;;;;;;4.10;3.40;;;5.30;99.90;;;;;;4999830;28;20176;-67
2023/01/24 09:26:15;;;;;;;3.80;3.40;;;5.30;99.90;;;;;;4998319;28;20168;-66
2023/01/24 09:28:40;;;;;;;4.37;3.40;;;5.30;99.90;;;;;;4998235;28;20192;-67
2023/01/24 09:31:10;;;;;;;3.60;3.27;;;5.30;99.90;;;;;;5011529;28;20177;-66
2023/01/24 09:33:36;;;;;;;3.87;3.23;;;5.30;99.90;;;;;;5017852;28;20178;-67
2023/01/24 09:36:05;;;;;;;3.60;3.30;;;5.30;99.90;;;;;;5014014;28;20218;-66
2023/01/24 09:38:32;;;;;;;3.90;3.40;;;5.40;99.90;;;;;;4997992;28;20181;-67
2023/01/24 09:41:13;;;;;;;3.83;3.43;;;5.40;99.90;;;;;;5008390;28;20183;-66
2023/01/24 09:43:48;;;;;;;5.30;3.90;;;5.40;99.90;;;;;;5017761;28;20240;-66
2023/01/24 09:46:25;;;;;;;4.00;3.40;;;5.40;99.90;;;;;;5003061;28;20185;-68
2023/01/24 09:49:13;;;;;;;4.00;3.20;;;5.40;99.90;;;;;;5000780;28;20226;-66
2023/01/24 09:51:46;;;;;;;5.20;3.27;;;5.40;99.90;;;;;;4968538;28;20202;-64
2023/01/24 09:54:52;;;;;;;3.87;3.47;;;5.50;99.90;;;;;;4997681;28;20208;-66
2023/01/24 09:57:28;;;;;;;4.30;3.80;;;5.50;99.90;;;;;;5010765;28;20182;-66
2023/01/24 10:00:00;;;;;;;4.60;3.70;;;5.50;99.90;;;;;;4997492;28;20199;-62
2023/01/24 10:02:27;;;;;;;4.30;3.40;;;5.50;99.90;;;;;;4997444;28;20199;-66
2023/01/24 10:04:53;;;;;;;4.00;3.60;;;5.50;99.90;;;;;;4997544;28;20175;-66
2023/01/24 10:07:37;;;;;;;4.23;3.60;;;5.50;99.90;;;;;;4997524;28;20195;-64
2023/01/24 10:10:15;;;;;;;4.63;3.90;;;5.50;99.90;;;;;;5000604;28;20174;-65
2023/01/24 10:12:47;;;;;;;4.37;3.70;;;5.50;99.90;;;;;;5017239;28;20205;-66
2023/01/24 10:15:52;;;;;;;5.17;3.90;;;5.50;99.90;;;;;;5016519;28;20182;-66
2023/01/24 10:18:47;;;;;;;8.87;3.83;;;5.50;99.90;;;;;;5005135;28;20186;-67
2023/01/24 10:21:21;;;;;;;3.70;3.20;;;5.60;99.90;;;;;;5018054;28;20202;-67
2023/01/24 10:23:54;;;;;;;4.53;3.77;;;5.50;99.90;;;;;;5027820;28;20178;-67
2023/01/24 10:26:21;;;;;;;4.87;3.57;;;5.60;99.90;;;;;;4997384;28;20206;-66
2023/01/24 10:28:50;;;;;;;4.73;4.17;;;5.60;99.90;;;;;;5008563;28;20187;-66
2023/01/24 10:31:27;;;;;;;4.57;3.97;;;5.70;99.90;;;;;;5003437;28;20215;-65
2023/01/24 10:33:58;;;;;;;4.17;3.77;;;5.60;99.90;;;;;;5009483;28;20212;-66
2023/01/24 10:36:38;;;;;;;4.40;3.77;;;5.70;99.90;;;;;;5009847;28;20237;-66
2023/01/24 10:39:04;;;;;;;3.93;3.50;;;5.70;99.90;;;;;;5006808;28;20229;-64
2023/01/24 10:41:31;;;;;;;4.47;3.97;;;5.70;99.90;;;;;;4996886;28;20278;-63
2023/01/24 10:44:23;;;;;;;5.40;3.93;;;5.70;99.90;;;;;;5012666;28;20265;-64
2023/01/24 10:47:18;;;;;;;4.93;4.23;;;5.80;99.90;;;;;;5002018;28;20236;-63
2023/01/24 10:49:57;;;;;;;5.10;4.00;;;5.80;99.90;;;;;;4996570;28;20225;-63
2023/01/24 10:52:23;;;;;;;4.83;4.17;;;5.80;99.90;;;;;;4996353;28;20191;-64
2023/01/24 10:54:52;;;;;;;4.40;3.80;;;5.80;99.90;;;;;;5035707;28;20198;-64
2023/01/24 10:57:30;;;;;;;4.67;4.07;;;5.80;99.90;;;;;;5015963;28;20204;-63
2023/01/24 11:00:01;;;;;;;4.77;4.27;;;5.80;99.90;;;;;;5016192;28;20178;-63
2023/01/24 11:02:34;;;;;;;4.80;4.30;;;5.80;99.90;;;;;;5015972;28;20282;-63
2023/01/24 11:05:02;;;;;;;5.20;4.30;;;5.80;99.90;;;;;;5014639;28;20170;-64
2023/01/24 11:07:31;;;;;;;6.20;4.47;;;5.80;99.90;;;;;;4996567;28;20326;-63
2023/01/24 11:10:08;;;;;;;4.27;3.83;;;5.70;99.90;;;;;;5011846;28;20198;-64
2023/01/24 11:12:34;;;;;;;5.50;4.30;;;5.80;99.90;;;;;;5015969;28;20213;-64
2023/01/24 11:15:00;;;;;;;4.77;4.00;;;5.80;99.90;;;;;;5015839;28;20170;-64
2023/01/24 11:17:36;;;;;;;5.20;3.70;;;5.80;99.90;;;;;;5015572;28;20202;-64
2023/01/24 11:20:37;;;;;;;4.27;3.63;;;5.80;99.90;;;;;;5015874;28;20217;-64
2023/01/24 11:23:17;;;;;;;4.60;3.83;;;5.90;99.90;;;;;;4997731;28;20226;-65
2023/01/24 11:26:03;;;;;;;4.97;3.90;;;5.90;99.90;;;;;;4995858;28;20186;-64
2023/01/24 11:28:34;;;;;;;4.10;3.70;;;5.90;99.90;;;;;;4994771;28;20199;-63
2023/01/24 11:31:07;;;;;;;4.53;3.93;;;5.90;99.90;;;;;;5002734;28;20196;-64
2023/01/24 11:33:34;;;;;;;4.80;4.17;;;6.00;99.90;;;;;;5015661;28;20174;-64
2023/01/24 11:36:15;;;;;;;4.57;4.03;;;5.90;99.90;;;;;;5015202;28;20202;-64
2023/01/24 11:38:43;;;;;;;4.63;4.13;;;6.00;99.90;;;;;;4999534;28;20178;-64
2023/01/24 11:41:12;;;;;;;4.33;3.93;;;5.90;99.90;;;;;;5015107;28;20264;-65
2023/01/24 11:44:08;;;;;;;4.27;3.87;;;5.90;99.90;;;;;;5015484;28;20194;-64
2023/01/24 11:47:02;;;;;;;3.93;3.53;;;5.90;99.90;;;;;;5014807;28;20171;-64
2023/01/24 11:50:01;;;;;;;5.70;4.33;;;5.90;99.90;;;;;;5015301;28;20181;-64
2023/01/24 11:53:03;;;;;;;4.70;4.20;;;5.90;99.90;;;;;;5015067;28;20186;-64
2023/01/24 11:55:49;;;;;;;4.70;4.07;;;5.90;99.90;;;;;;5015187;28;20166;-64
2023/01/24 11:58:42;;;;;;;5.50;4.73;;;5.90;99.90;;;;;;5015192;28;20170;-63
2023/01/24 12:01:21;;;;;;;5.47;4.47;;;5.90;99.90;;;;;;5014653;28;20214;-64
2023/01/24 12:04:14;;;;;;;4.67;4.10;;;5.90;99.90;;;;;;5013928;28;20185;-64
2023/01/24 12:06:45;;;;;;;4.57;4.00;;;5.90;99.90;;;;;;5014886;28;20195;-64
2023/01/24 12:09:18;;;;;;;4.60;4.03;;;5.90;99.90;;;;;;5014861;28;20170;-64
2023/01/24 12:12:00;;;;;;;5.23;4.57;;;5.90;99.90;;;;;;5013490;28;20189;-64
2023/01/24 12:14:39;;;;;;;5.47;4.37;;;5.90;99.90;;;;;;5002325;28;20180;-64
2023/01/24 12:17:33;;;;;;;5.03;4.53;;;5.90;99.90;;;;;;4994988;28;20182;-64
2023/01/24 12:20:13;;;;;;;4.07;3.67;;;5.90;99.90;;;;;;4998483;28;20198;-64
2023/01/24 12:22:41;;;;;;;4.20;3.77;;;5.90;99.90;;;;;;5014259;28;20271;-63
2023/01/24 12:25:37;;;;;;;4.07;3.57;;;5.90;99.90;;;;;;5007761;28;20199;-65
2023/01/24 12:28:09;;;;;;;5.33;4.20;;;5.90;99.90;;;;;;4995118;28;20167;-64
2023/01/24 12:30:53;;;;;;;4.23;3.83;;;6.00;99.90;;;;;;4996664;28;20226;-64
2023/01/24 12:33:35;;;;;;;4.63;3.60;;;6.00;99.90;;;;;;5009037;28;20186;-64
2023/01/24 12:36:25;;;;;;;4.37;3.90;;;6.00;99.90;;;;;;5009415;28;20400;-64
2023/01/24 12:38:59;;;;;;;4.67;3.90;;;6.00;99.90;;;;;;4997505;28;20210;-63
2023/01/24 12:41:31;;;;;;;5.13;4.10;;;6.00;99.90;;;;;;5014186;28;20281;-64
2023/01/24 12:44:32;;;;;;;6.53;4.50;;;6.00;99.90;;;;;;5009235;28;20199;-64
2023/01/24 12:47:19;;;;;;;4.57;3.90;;;6.00;99.90;;;;;;4994814;28;20202;-64
2023/01/24 12:50:22;;;;;;;4.47;3.73;;;6.00;99.90;;;;;;4994526;28;20193;-64
2023/01/24 12:52:59;;;;;;;5.17;4.13;;;6.00;99.90;;;;;;4994626;28;20206;-64
2023/01/24 12:55:32;;;;;;;5.10;4.27;;;6.00;99.90;;;;;;5026721;28;20201;-64
2023/01/24 12:58:23;;;;;;;5.13;4.40;;;6.00;99.90;;;;;;5034044;28;20169;-64
2023/01/24 13:01:21;;;;;;;5.80;4.13;;;6.00;99.90;;;;;;4994763;28;20290;-65
2023/01/24 13:04:17;;;;;;;5.63;4.50;;;5.90;99.90;;;;;;4979247;28;20262;-63
2023/01/24 13:06:55;;;;;;;4.80;4.30;;;5.90;99.90;;;;;;5010862;28;20226;-64
2023/01/24 13:09:45;;;;;;;4.97;4.30;;;5.90;99.90;;;;;;5014326;28;20202;-64
2023/01/24 13:12:22;;;;;;;5.17;4.40;;;5.90;99.90;;;;;;5013947;28;20185;-63
2023/01/24 13:14:57;;;;;;;4.90;4.37;;;5.80;99.90;;;;;;5003206;28;20215;-64
2023/01/24 13:17:22;;;;;;;5.57;4.43;;;5.80;99.90;;;;;;4994742;28;20179;-63
2023/01/24 13:20:14;;;;;;;5.13;4.53;;;5.80;99.90;;;;;;5006691;28;20454;-63
2023/01/24 13:23:32;;;;;;;4.80;4.30;;;5.80;99.90;;;;;;5004721;28;20199;-64
2023/01/24 13:26:16;;;;;;;4.43;3.97;;;5.80;99.90;;;;;;4921911;29;20181;-64
2023/01/24 13:28:55;;;;;;;4.20;3.80;;;5.80;99.90;;;;;;5005306;28;20182;-64
2023/01/24 13:31:32;;;;;;;5.33;4.37;;;5.80;99.90;;;;;;5039642;28;20171;-64
2023/01/24 13:34:02;;;;;;;5.43;4.67;;;5.80;99.90;;;;;;5014042;28;20193;-64
2023/01/24 13:36:37;;;;;;;5.43;4.30;;;5.80;99.90;;;;;;5014116;28;20207;-64
2023/01/24 13:39:03;;;;;;;5.63;4.57;;;5.70;99.90;;;;;;5014175;28;20255;-64
2023/01/24 13:41:31;;;;;;;4.63;4.17;;;5.70;99.90;;;;;;5013877;28;20219;-63
2023/01/24 13:44:06;;;;;;;5.33;4.60;;;5.80;99.90;;;;;;5013851;28;20193;-63
2023/01/24 13:46:44;;;;;;;5.13;4.60;;;5.80;99.90;;;;;;5013583;28;20182;-63
2023/01/24 13:49:33;;;;;;;5.20;4.57;;;5.80;99.90;;;;;;5013774;28;20232;-63
2023/01/24 13:52:01;;;;;;;5.40;4.90;;;5.80;99.90;;;;;;5013034;28;20191;-63
2023/01/24 13:54:40;;;;;;;6.47;4.67;;;5.70;99.90;;;;;;4997815;28;20230;-63
2023/01/24 13:57:40;;;;;;;5.40;4.30;;;5.70;99.90;;;;;;4997939;28;20185;-63
2023/01/24 14:00:08;;;;;;;4.77;4.27;;;5.70;99.90;;;;;;4973166;28;20197;-64